sensor_id;sensor_type;location;lat;lon;timestamp;P1;durP1;ratioP1;P2;durP2;ratioP2
23628;SDS011;11991;57.150;-2.134;2023-05-21T00:00:15;4.50;;;3.25;;
23628;SDS011;11991;57.150;-2.134;2023-05-21T00:02:43;5.38;;;2.83;;
23628;SDS011;11991;57.150;-2.134;2023-05-21T00:05:10;3.30;;;1.70;;
23628;SDS011;11991;57.150;-2.134;2023-05-21T00:07:40;2.30;;;1.77;;
23628;SDS011;11991;57.150;-2.134;2023-05-21T00:10:07;2.33;;;1.83;;
23628;SDS011;11991;57.150;-2.134;2023-05-21T00:12:35;2.78;;;1.98;;
23628;SDS011;11991;57.150;-2.134;2023-05-21T00:15:02;3.33;;;1.73;;
23628;SDS011;11991;57.150;-2.134;2023-05-21T00:17:30;2.17;;;1.88;;
23628;SDS011;11991;57.150;-2.134;2023-05-21T00:19:58;4.07;;;2.58;;
23628;SDS011;11991;57.150;-2.134;2023-05-21T00:22:25;3.47;;;1.85;;
23628;SDS011;11991;57.150;-2.134;2023-05-21T00:24:52;2.55;;;2.20;;
23628;SDS011;11991;57.150;-2.134;2023-05-21T00:27:19;2.45;;;2.22;;
23628;SDS011;11991;57.150;-2.134;2023-05-21T00:29:46;2.47;;;1.70;;
23628;SDS011;11991;57.150;-2.134;2023-05-21T00:32:14;2.50;;;1.75;;
23628;SDS011;11991;57.150;-2.134;2023-05-21T00:34:41;2.50;;;2.30;;
23628;SDS011;11991;57.150;-2.134;2023-05-21T00:37:09;2.30;;;1.90;;
23628;SDS011;11991;57.150;-2.134;2023-05-21T00:39:36;2.22;;;1.80;;
23628;SDS011;11991;57.150;-2.134;2023-05-21T00:42:03;4.15;;;1.90;;
23628;SDS011;11991;57.150;-2.134;2023-05-21T00:44:31;2.10;;;1.70;;
23628;SDS011;11991;57.150;-2.134;2023-05-21T00:47:01;4.30;;;3.10;;
23628;SDS011;11991;57.150;-2.134;2023-05-21T00:49:28;6.40;;;3.85;;
23628;SDS011;11991;57.150;-2.134;2023-05-21T00:51:57;4.53;;;3.35;;
23628;SDS011;11991;57.150;-2.134;2023-05-21T00:54:27;3.05;;;2.28;;
23628;SDS011;11991;57.150;-2.134;2023-05-21T00:56:54;4.95;;;2.85;;
23628;SDS011;11991;57.150;-2.134;2023-05-21T00:59:21;3.72;;;2.60;;
23628;SDS011;11991;57.150;-2.134;2023-05-21T01:01:50;2.83;;;2.17;;
23628;SDS011;11991;57.150;-2.134;2023-05-21T01:04:24;3.30;;;2.60;;
23628;SDS011;11991;57.150;-2.134;2023-05-21T01:06:52;4.30;;;2.55;;
23628;SDS011;11991;57.150;-2.134;2023-05-21T01:09:21;4.85;;;2.08;;
23628;SDS011;11991;57.150;-2.134;2023-05-21T01:11:48;4.20;;;2.42;;
23628;SDS011;11991;57.150;-2.134;2023-05-21T01:14:16;3.28;;;2.50;;
23628;SDS011;11991;57.150;-2.134;2023-05-21T01:16:46;2.70;;;1.98;;
23628;SDS011;11991;57.150;-2.134;2023-05-21T01:19:16;2.00;;;1.35;;
23628;SDS011;11991;57.150;-2.134;2023-05-21T01:21:46;2.08;;;1.70;;
23628;SDS011;11991;57.150;-2.134;2023-05-21T01:24:19;1.77;;;1.55;;
23628;SDS011;11991;57.150;-2.134;2023-05-21T01:26:46;2.05;;;1.85;;
23628;SDS011;11991;57.150;-2.134;2023-05-21T01:29:13;2.47;;;2.00;;
23628;SDS011;11991;57.150;-2.134;2023-05-21T01:34:21;1.58;;;1.48;;
23628;SDS011;11991;57.150;-2.134;2023-05-21T01:36:56;2.13;;;1.63;;
23628;SDS011;11991;57.150;-2.134;2023-05-21T01:39:54;2.17;;;1.50;;
23628;SDS011;11991;57.150;-2.134;2023-05-21T01:42:25;3.00;;;1.65;;
23628;SDS011;11991;57.150;-2.134;2023-05-21T01:44:54;2.17;;;1.60;;
23628;SDS011;11991;57.150;-2.134;2023-05-21T01:47:23;2.05;;;1.63;;
23628;SDS011;11991;57.150;-2.134;2023-05-21T01:49:52;2.78;;;1.48;;
23628;SDS011;11991;57.150;-2.134;2023-05-21T01:52:20;2.00;;;1.55;;
23628;SDS011;11991;57.150;-2.134;2023-05-21T01:54:47;1.30;;;1.20;;
23628;SDS011;11991;57.150;-2.134;2023-05-21T01:57:16;1.50;;;1.40;;
23628;SDS011;11991;57.150;-2.134;2023-05-21T01:59:44;1.90;;;1.65;;
23628;SDS011;11991;57.150;-2.134;2023-05-21T02:02:11;2.78;;;1.95;;
23628;SDS011;11991;57.150;-2.134;2023-05-21T02:04:38;1.58;;;1.35;;
23628;SDS011;11991;57.150;-2.134;2023-05-21T02:07:09;1.10;;;1.00;;
23628;SDS011;11991;57.150;-2.134;2023-05-21T02:09:36;1.40;;;1.30;;
23628;SDS011;11991;57.150;-2.134;2023-05-21T02:12:04;1.20;;;1.10;;
23628;SDS011;11991;57.150;-2.134;2023-05-21T02:14:31;1.92;;;1.50;;
23628;SDS011;11991;57.150;-2.134;2023-05-21T02:17:01;1.42;;;1.10;;
23628;SDS011;11991;57.150;-2.134;2023-05-21T02:19:28;1.20;;;1.10;;
23628;SDS011;11991;57.150;-2.134;2023-05-21T02:21:56;1.65;;;1.20;;
23628;SDS011;11991;57.150;-2.134;2023-05-21T02:24:23;1.50;;;1.40;;
23628;SDS011;11991;57.150;-2.134;2023-05-21T02:26:50;3.38;;;2.65;;
23628;SDS011;11991;57.150;-2.134;2023-05-21T02:29:18;2.25;;;1.60;;
23628;SDS011;11991;57.150;-2.134;2023-05-21T02:31:45;1.25;;;1.15;;
23628;SDS011;11991;57.150;-2.134;2023-05-21T02:34:12;2.83;;;1.80;;
23628;SDS011;11991;57.150;-2.134;2023-05-21T02:36:39;2.63;;;1.77;;
23628;SDS011;11991;57.150;-2.134;2023-05-21T02:39:07;1.80;;;1.50;;
23628;SDS011;11991;57.150;-2.134;2023-05-21T02:41:34;2.35;;;1.50;;
23628;SDS011;11991;57.150;-2.134;2023-05-21T02:44:01;2.67;;;1.70;;
23628;SDS011;11991;57.150;-2.134;2023-05-21T02:46:29;2.88;;;1.88;;
23628;SDS011;11991;57.150;-2.134;2023-05-21T02:48:56;1.85;;;1.67;;
23628;SDS011;11991;57.150;-2.134;2023-05-21T02:51:23;3.10;;;2.05;;
23628;SDS011;11991;57.150;-2.134;2023-05-21T02:53:50;1.70;;;1.55;;
23628;SDS011;11991;57.150;-2.134;2023-05-21T02:56:18;2.30;;;1.55;;
23628;SDS011;11991;57.150;-2.134;2023-05-21T02:58:45;1.67;;;1.55;;
23628;SDS011;11991;57.150;-2.134;2023-05-21T03:01:13;2.17;;;1.40;;
23628;SDS011;11991;57.150;-2.134;2023-05-21T03:03:40;1.23;;;1.13;;
23628;SDS011;11991;57.150;-2.134;2023-05-21T03:06:07;1.48;;;1.38;;
23628;SDS011;11991;57.150;-2.134;2023-05-21T03:08:35;3.25;;;1.50;;
23628;SDS011;11991;57.150;-2.134;2023-05-21T03:11:03;1.25;;;1.15;;
23628;SDS011;11991;57.150;-2.134;2023-05-21T03:13:30;1.98;;;1.45;;
23628;SDS011;11991;57.150;-2.134;2023-05-21T03:15:58;1.38;;;1.20;;
23628;SDS011;11991;57.150;-2.134;2023-05-21T03:18:25;1.70;;;1.60;;
23628;SDS011;11991;57.150;-2.134;2023-05-21T03:20:52;1.65;;;1.33;;
23628;SDS011;11991;57.150;-2.134;2023-05-21T03:23:20;2.45;;;1.52;;
23628;SDS011;11991;57.150;-2.134;2023-05-21T03:25:47;3.65;;;2.45;;
23628;SDS011;11991;57.150;-2.134;2023-05-21T03:28:14;1.77;;;1.35;;
23628;SDS011;11991;57.150;-2.134;2023-05-21T03:30:46;1.60;;;1.50;;
23628;SDS011;11991;57.150;-2.134;2023-05-21T03:33:33;1.77;;;1.27;;
23628;SDS011;11991;57.150;-2.134;2023-05-21T03:36:10;2.05;;;1.40;;
23628;SDS011;11991;57.150;-2.134;2023-05-21T03:38:38;2.80;;;1.92;;
23628;SDS011;11991;57.150;-2.134;2023-05-21T03:41:07;1.52;;;1.20;;
23628;SDS011;11991;57.150;-2.134;2023-05-21T03:43:34;1.50;;;1.30;;
23628;SDS011;11991;57.150;-2.134;2023-05-21T03:46:02;1.70;;;1.48;;
23628;SDS011;11991;57.150;-2.134;2023-05-21T03:48:52;1.40;;;1.30;;
23628;SDS011;11991;57.150;-2.134;2023-05-21T03:51:22;1.73;;;1.60;;
23628;SDS011;11991;57.150;-2.134;2023-05-21T03:53:53;2.30;;;2.00;;
23628;SDS011;11991;57.150;-2.134;2023-05-21T03:56:20;3.50;;;2.13;;
23628;SDS011;11991;57.150;-2.134;2023-05-21T03:58:48;2.72;;;2.10;;
23628;SDS011;11991;57.150;-2.134;2023-05-21T04:01:15;2.47;;;2.13;;
23628;SDS011;11991;57.150;-2.134;2023-05-21T04:03:44;2.08;;;1.88;;
23628;SDS011;11991;57.150;-2.134;2023-05-21T04:06:13;2.40;;;2.03;;
23628;SDS011;11991;57.150;-2.134;2023-05-21T04:08:41;3.08;;;2.00;;
23628;SDS011;11991;57.150;-2.134;2023-05-21T04:11:08;2.17;;;1.98;;
23628;SDS011;11991;57.150;-2.134;2023-05-21T04:13:35;2.88;;;2.38;;
23628;SDS011;11991;57.150;-2.134;2023-05-21T04:16:04;3.90;;;2.85;;
23628;SDS011;11991;57.150;-2.134;2023-05-21T04:18:34;2.22;;;1.80;;
23628;SDS011;11991;57.150;-2.134;2023-05-21T04:21:02;3.42;;;2.55;;
23628;SDS011;11991;57.150;-2.134;2023-05-21T04:23:29;3.88;;;2.50;;
23628;SDS011;11991;57.150;-2.134;2023-05-21T04:25:57;3.95;;;2.83;;
23628;SDS011;11991;57.150;-2.134;2023-05-21T04:28:24;4.35;;;2.80;;
23628;SDS011;11991;57.150;-2.134;2023-05-21T04:30:54;4.78;;;3.47;;
23628;SDS011;11991;57.150;-2.134;2023-05-21T04:33:23;4.00;;;3.10;;
23628;SDS011;11991;57.150;-2.134;2023-05-21T04:35:51;4.07;;;3.40;;
23628;SDS011;11991;57.150;-2.134;2023-05-21T04:38:19;5.07;;;3.90;;
23628;SDS011;11991;57.150;-2.134;2023-05-21T04:40:47;6.18;;;3.95;;
23628;SDS011;11991;57.150;-2.134;2023-05-21T04:43:17;4.38;;;3.42;;
23628;SDS011;11991;57.150;-2.134;2023-05-21T04:45:52;4.13;;;3.13;;
23628;SDS011;11991;57.150;-2.134;2023-05-21T04:48:20;3.78;;;2.78;;
23628;SDS011;11991;57.150;-2.134;2023-05-21T04:50:52;2.70;;;2.28;;
23628;SDS011;11991;57.150;-2.134;2023-05-21T04:53:21;3.22;;;2.83;;
23628;SDS011;11991;57.150;-2.134;2023-05-21T04:55:51;2.78;;;2.30;;
23628;SDS011;11991;57.150;-2.134;2023-05-21T04:58:18;2.80;;;2.03;;
23628;SDS011;11991;57.150;-2.134;2023-05-21T05:00:46;2.30;;;1.90;;
23628;SDS011;11991;57.150;-2.134;2023-05-21T05:03:16;2.95;;;2.45;;
23628;SDS011;11991;57.150;-2.134;2023-05-21T05:05:44;1.75;;;1.60;;
23628;SDS011;11991;57.150;-2.134;2023-05-21T05:08:11;2.85;;;2.30;;
23628;SDS011;11991;57.150;-2.134;2023-05-21T05:10:41;2.75;;;2.03;;
23628;SDS011;11991;57.150;-2.134;2023-05-21T05:13:08;1.65;;;1.35;;
23628;SDS011;11991;57.150;-2.134;2023-05-21T05:15:36;2.55;;;1.95;;
23628;SDS011;11991;57.150;-2.134;2023-05-21T05:18:05;1.80;;;1.70;;
23628;SDS011;11991;57.150;-2.134;2023-05-21T05:20:34;1.52;;;1.42;;
23628;SDS011;11991;57.150;-2.134;2023-05-21T05:23:01;2.10;;;1.58;;
23628;SDS011;11991;57.150;-2.134;2023-05-21T05:25:29;2.65;;;1.85;;
23628;SDS011;11991;57.150;-2.134;2023-05-21T05:27:56;2.25;;;2.05;;
23628;SDS011;11991;57.150;-2.134;2023-05-21T05:30:23;1.58;;;1.48;;
23628;SDS011;11991;57.150;-2.134;2023-05-21T05:32:51;2.67;;;1.60;;
23628;SDS011;11991;57.150;-2.134;2023-05-21T05:35:18;2.47;;;1.70;;
23628;SDS011;11991;57.150;-2.134;2023-05-21T05:37:46;2.72;;;2.15;;
23628;SDS011;11991;57.150;-2.134;2023-05-21T05:40:13;2.83;;;1.50;;
23628;SDS011;11991;57.150;-2.134;2023-05-21T05:42:41;2.22;;;1.70;;
23628;SDS011;11991;57.150;-2.134;2023-05-21T05:45:12;2.72;;;2.05;;
23628;SDS011;11991;57.150;-2.134;2023-05-21T05:47:39;2.33;;;1.75;;
23628;SDS011;11991;57.150;-2.134;2023-05-21T05:50:07;1.50;;;1.30;;
23628;SDS011;11991;57.150;-2.134;2023-05-21T05:52:34;1.40;;;1.30;;
23628;SDS011;11991;57.150;-2.134;2023-05-21T05:55:01;1.20;;;1.10;;
23628;SDS011;11991;57.150;-2.134;2023-05-21T05:57:29;1.15;;;1.00;;
23628;SDS011;11991;57.150;-2.134;2023-05-21T06:00:01;0.68;;;0.68;;
23628;SDS011;11991;57.150;-2.134;2023-05-21T06:02:37;0.68;;;0.65;;
23628;SDS011;11991;57.150;-2.134;2023-05-21T06:05:05;0.65;;;0.65;;
23628;SDS011;11991;57.150;-2.134;2023-05-21T06:07:32;0.70;;;0.70;;
23628;SDS011;11991;57.150;-2.134;2023-05-21T06:09:59;0.73;;;0.73;;
23628;SDS011;11991;57.150;-2.134;2023-05-21T06:12:26;0.70;;;0.70;;
23628;SDS011;11991;57.150;-2.134;2023-05-21T06:14:54;0.60;;;0.60;;
23628;SDS011;11991;57.150;-2.134;2023-05-21T06:17:21;0.50;;;0.50;;
23628;SDS011;11991;57.150;-2.134;2023-05-21T06:19:50;0.50;;;0.50;;
23628;SDS011;11991;57.150;-2.134;2023-05-21T06:22:18;0.40;;;0.40;;
23628;SDS011;11991;57.150;-2.134;2023-05-21T06:24:45;0.30;;;0.30;;
23628;SDS011;11991;57.150;-2.134;2023-05-21T06:27:13;0.40;;;0.40;;
23628;SDS011;11991;57.150;-2.134;2023-05-21T06:29:41;0.30;;;0.30;;
23628;SDS011;11991;57.150;-2.134;2023-05-21T06:32:08;0.47;;;0.47;;
23628;SDS011;11991;57.150;-2.134;2023-05-21T06:34:36;0.40;;;0.40;;
23628;SDS011;11991;57.150;-2.134;2023-05-21T06:37:03;0.40;;;0.40;;
23628;SDS011;11991;57.150;-2.134;2023-05-21T06:39:30;0.52;;;0.52;;
23628;SDS011;11991;57.150;-2.134;2023-05-21T06:41:57;0.52;;;0.52;;
23628;SDS011;11991;57.150;-2.134;2023-05-21T06:45:00;0.52;;;0.52;;
23628;SDS011;11991;57.150;-2.134;2023-05-21T06:47:30;0.43;;;0.40;;
23628;SDS011;11991;57.150;-2.134;2023-05-21T06:49:58;0.40;;;0.40;;
23628;SDS011;11991;57.150;-2.134;2023-05-21T06:52:25;0.93;;;0.60;;
23628;SDS011;11991;57.150;-2.134;2023-05-21T06:54:53;0.50;;;0.50;;
23628;SDS011;11991;57.150;-2.134;2023-05-21T06:57:22;0.30;;;0.30;;
23628;SDS011;11991;57.150;-2.134;2023-05-21T06:59:49;0.50;;;0.43;;
23628;SDS011;11991;57.150;-2.134;2023-05-21T07:02:17;0.40;;;0.40;;
23628;SDS011;11991;57.150;-2.134;2023-05-21T07:04:44;0.63;;;0.50;;
23628;SDS011;11991;57.150;-2.134;2023-05-21T07:07:11;0.40;;;0.40;;
23628;SDS011;11991;57.150;-2.134;2023-05-21T07:09:39;0.45;;;0.45;;
23628;SDS011;11991;57.150;-2.134;2023-05-21T07:12:06;0.43;;;0.43;;
23628;SDS011;11991;57.150;-2.134;2023-05-21T07:14:34;0.43;;;0.43;;
23628;SDS011;11991;57.150;-2.134;2023-05-21T07:17:01;0.40;;;0.40;;
23628;SDS011;11991;57.150;-2.134;2023-05-21T07:19:29;0.90;;;0.65;;
23628;SDS011;11991;57.150;-2.134;2023-05-21T07:21:57;0.43;;;0.43;;
23628;SDS011;11991;57.150;-2.134;2023-05-21T07:24:24;0.98;;;0.57;;
23628;SDS011;11991;57.150;-2.134;2023-05-21T07:26:53;0.60;;;0.60;;
23628;SDS011;11991;57.150;-2.134;2023-05-21T07:29:20;0.50;;;0.50;;
23628;SDS011;11991;57.150;-2.134;2023-05-21T07:31:47;1.05;;;0.50;;
23628;SDS011;11991;57.150;-2.134;2023-05-21T07:34:14;0.63;;;0.50;;
23628;SDS011;11991;57.150;-2.134;2023-05-21T07:36:42;0.73;;;0.60;;
23628;SDS011;11991;57.150;-2.134;2023-05-21T07:39:10;0.95;;;0.57;;
23628;SDS011;11991;57.150;-2.134;2023-05-21T07:41:37;0.60;;;0.57;;
23628;SDS011;11991;57.150;-2.134;2023-05-21T07:44:06;0.40;;;0.40;;
23628;SDS011;11991;57.150;-2.134;2023-05-21T07:46:37;0.63;;;0.38;;
23628;SDS011;11991;57.150;-2.134;2023-05-21T07:49:05;0.65;;;0.50;;
23628;SDS011;11991;57.150;-2.134;2023-05-21T07:51:42;1.30;;;0.55;;
23628;SDS011;11991;57.150;-2.134;2023-05-21T07:54:10;0.63;;;0.50;;
23628;SDS011;11991;57.150;-2.134;2023-05-21T07:56:39;0.57;;;0.47;;
23628;SDS011;11991;57.150;-2.134;2023-05-21T07:59:09;1.02;;;0.30;;
23628;SDS011;11991;57.150;-2.134;2023-05-21T08:01:39;0.60;;;0.60;;
23628;SDS011;11991;57.150;-2.134;2023-05-21T08:04:07;0.50;;;0.50;;
23628;SDS011;11991;57.150;-2.134;2023-05-21T08:06:35;0.73;;;0.40;;
23628;SDS011;11991;57.150;-2.134;2023-05-21T08:09:03;1.35;;;0.50;;
23628;SDS011;11991;57.150;-2.134;2023-05-21T08:11:31;0.50;;;0.50;;
23628;SDS011;11991;57.150;-2.134;2023-05-21T08:14:00;0.70;;;0.40;;
23628;SDS011;11991;57.150;-2.134;2023-05-21T08:16:27;0.40;;;0.40;;
23628;SDS011;11991;57.150;-2.134;2023-05-21T08:18:54;0.30;;;0.30;;
23628;SDS011;11991;57.150;-2.134;2023-05-21T08:21:24;0.43;;;0.43;;
23628;SDS011;11991;57.150;-2.134;2023-05-21T08:23:51;0.30;;;0.30;;
23628;SDS011;11991;57.150;-2.134;2023-05-21T08:26:19;0.30;;;0.30;;
23628;SDS011;11991;57.150;-2.134;2023-05-21T08:28:47;0.50;;;0.45;;
23628;SDS011;11991;57.150;-2.134;2023-05-21T08:31:16;0.20;;;0.20;;
23628;SDS011;11991;57.150;-2.134;2023-05-21T08:33:50;1.17;;;0.77;;
23628;SDS011;11991;57.150;-2.134;2023-05-21T08:36:25;0.55;;;0.50;;
23628;SDS011;11991;57.150;-2.134;2023-05-21T08:38:57;0.43;;;0.40;;
23628;SDS011;11991;57.150;-2.134;2023-05-21T08:41:31;0.50;;;0.50;;
23628;SDS011;11991;57.150;-2.134;2023-05-21T08:44:01;0.55;;;0.50;;
23628;SDS011;11991;57.150;-2.134;2023-05-21T08:46:31;0.40;;;0.40;;
23628;SDS011;11991;57.150;-2.134;2023-05-21T08:49:00;0.30;;;0.30;;
23628;SDS011;11991;57.150;-2.134;2023-05-21T08:51:29;0.40;;;0.40;;
23628;SDS011;11991;57.150;-2.134;2023-05-21T08:53:56;0.40;;;0.40;;
23628;SDS011;11991;57.150;-2.134;2023-05-21T08:56:27;0.40;;;0.40;;
23628;SDS011;11991;57.150;-2.134;2023-05-21T08:58:57;1.30;;;0.50;;
23628;SDS011;11991;57.150;-2.134;2023-05-21T09:01:27;0.40;;;0.40;;
23628;SDS011;11991;57.150;-2.134;2023-05-21T09:04:01;0.38;;;0.38;;
23628;SDS011;11991;57.150;-2.134;2023-05-21T09:06:46;0.30;;;0.30;;
23628;SDS011;11991;57.150;-2.134;2023-05-21T09:09:24;0.40;;;0.30;;
23628;SDS011;11991;57.150;-2.134;2023-05-21T09:11:58;0.47;;;0.40;;
23628;SDS011;11991;57.150;-2.134;2023-05-21T09:14:25;0.30;;;0.30;;
23628;SDS011;11991;57.150;-2.134;2023-05-21T09:17:11;0.95;;;0.30;;
23628;SDS011;11991;57.150;-2.134;2023-05-21T09:22:49;0.30;;;0.30;;
23628;SDS011;11991;57.150;-2.134;2023-05-21T09:25:24;0.35;;;0.30;;
23628;SDS011;11991;57.150;-2.134;2023-05-21T09:27:59;0.30;;;0.30;;
23628;SDS011;11991;57.150;-2.134;2023-05-21T09:30:26;0.75;;;0.50;;
23628;SDS011;11991;57.150;-2.134;2023-05-21T09:32:57;0.45;;;0.40;;
23628;SDS011;11991;57.150;-2.134;2023-05-21T09:35:25;0.40;;;0.40;;
23628;SDS011;11991;57.150;-2.134;2023-05-21T09:37:52;0.95;;;0.95;;
23628;SDS011;11991;57.150;-2.134;2023-05-21T09:40:22;0.82;;;0.73;;
23628;SDS011;11991;57.150;-2.134;2023-05-21T09:42:50;0.50;;;0.50;;
23628;SDS011;11991;57.150;-2.134;2023-05-21T09:45:21;0.43;;;0.43;;
23628;SDS011;11991;57.150;-2.134;2023-05-21T09:47:54;0.52;;;0.52;;
23628;SDS011;11991;57.150;-2.134;2023-05-21T09:50:22;0.35;;;0.35;;
23628;SDS011;11991;57.150;-2.134;2023-05-21T09:52:56;0.30;;;0.30;;
23628;SDS011;11991;57.150;-2.134;2023-05-21T09:55:25;0.30;;;0.30;;
23628;SDS011;11991;57.150;-2.134;2023-05-21T09:57:52;0.32;;;0.32;;
23628;SDS011;11991;57.150;-2.134;2023-05-21T10:02:49;0.30;;;0.30;;
23628;SDS011;11991;57.150;-2.134;2023-05-21T10:05:24;0.75;;;0.40;;
23628;SDS011;11991;57.150;-2.134;2023-05-21T10:07:58;1.35;;;0.68;;
23628;SDS011;11991;57.150;-2.134;2023-05-21T10:10:28;0.30;;;0.30;;
23628;SDS011;11991;57.150;-2.134;2023-05-21T10:12:58;0.32;;;0.32;;
23628;SDS011;11991;57.150;-2.134;2023-05-21T10:15:29;0.50;;;0.50;;
23628;SDS011;11991;57.150;-2.134;2023-05-21T10:18:00;0.40;;;0.40;;
23628;SDS011;11991;57.150;-2.134;2023-05-21T10:20:28;0.35;;;0.35;;
23628;SDS011;11991;57.150;-2.134;2023-05-21T10:22:57;0.40;;;0.40;;
23628;SDS011;11991;57.150;-2.134;2023-05-21T10:25:25;0.30;;;0.30;;
23628;SDS011;11991;57.150;-2.134;2023-05-21T10:27:53;0.40;;;0.40;;
23628;SDS011;11991;57.150;-2.134;2023-05-21T10:30:22;0.55;;;0.40;;
23628;SDS011;11991;57.150;-2.134;2023-05-21T10:32:50;0.30;;;0.30;;
23628;SDS011;11991;57.150;-2.134;2023-05-21T10:35:18;0.45;;;0.45;;
23628;SDS011;11991;57.150;-2.134;2023-05-21T10:37:45;0.40;;;0.40;;
23628;SDS011;11991;57.150;-2.134;2023-05-21T10:40:13;0.40;;;0.40;;
23628;SDS011;11991;57.150;-2.134;2023-05-21T10:56:41;0.77;;;0.77;;
23628;SDS011;11991;57.150;-2.134;2023-05-21T11:01:48;0.60;;;0.60;;
23628;SDS011;11991;57.150;-2.134;2023-05-21T11:04:22;0.45;;;0.45;;
23628;SDS011;11991;57.150;-2.134;2023-05-21T11:06:52;0.60;;;0.60;;
23628;SDS011;11991;57.150;-2.134;2023-05-21T11:09:19;0.40;;;0.40;;
23628;SDS011;11991;57.150;-2.134;2023-05-21T11:11:50;0.77;;;0.60;;
23628;SDS011;11991;57.150;-2.134;2023-05-21T11:14:32;0.63;;;0.63;;
23628;SDS011;11991;57.150;-2.134;2023-05-21T11:19:42;0.45;;;0.45;;
23628;SDS011;11991;57.150;-2.134;2023-05-21T11:24:50;1.75;;;0.60;;
23628;SDS011;11991;57.150;-2.134;2023-05-21T11:27:31;0.40;;;0.40;;
23628;SDS011;11991;57.150;-2.134;2023-05-21T11:30:06;0.50;;;0.50;;
23628;SDS011;11991;57.150;-2.134;2023-05-21T11:32:38;0.50;;;0.50;;
23628;SDS011;11991;57.150;-2.134;2023-05-21T11:35:06;0.40;;;0.40;;
23628;SDS011;11991;57.150;-2.134;2023-05-21T11:37:34;0.70;;;0.70;;
23628;SDS011;11991;57.150;-2.134;2023-05-21T11:40:15;0.60;;;0.60;;
23628;SDS011;11991;57.150;-2.134;2023-05-21T11:42:54;1.27;;;0.70;;
23628;SDS011;11991;57.150;-2.134;2023-05-21T11:45:22;0.60;;;0.57;;
23628;SDS011;11991;57.150;-2.134;2023-05-21T11:47:53;0.57;;;0.30;;
23628;SDS011;11991;57.150;-2.134;2023-05-21T11:50:22;0.43;;;0.32;;
23628;SDS011;11991;57.150;-2.134;2023-05-21T11:52:49;0.30;;;0.30;;
23628;SDS011;11991;57.150;-2.134;2023-05-21T11:55:21;0.73;;;0.40;;
23628;SDS011;11991;57.150;-2.134;2023-05-21T11:57:51;0.63;;;0.43;;
23628;SDS011;11991;57.150;-2.134;2023-05-21T12:00:19;0.40;;;0.40;;
23628;SDS011;11991;57.150;-2.134;2023-05-21T12:02:49;0.93;;;0.82;;
23628;SDS011;11991;57.150;-2.134;2023-05-21T12:05:17;1.33;;;1.17;;
23628;SDS011;11991;57.150;-2.134;2023-05-21T12:07:45;0.80;;;0.70;;
23628;SDS011;11991;57.150;-2.134;2023-05-21T12:10:19;0.60;;;0.60;;
23628;SDS011;11991;57.150;-2.134;2023-05-21T12:12:47;0.50;;;0.50;;
23628;SDS011;11991;57.150;-2.134;2023-05-21T12:15:20;0.80;;;0.55;;
23628;SDS011;11991;57.150;-2.134;2023-05-21T12:17:48;0.50;;;0.45;;
23628;SDS011;11991;57.150;-2.134;2023-05-21T12:20:18;0.60;;;0.60;;
23628;SDS011;11991;57.150;-2.134;2023-05-21T12:22:47;0.98;;;0.88;;
23628;SDS011;11991;57.150;-2.134;2023-05-21T12:25:21;1.10;;;0.90;;
23628;SDS011;11991;57.150;-2.134;2023-05-21T12:27:48;1.10;;;0.90;;
23628;SDS011;11991;57.150;-2.134;2023-05-21T12:30:24;1.55;;;0.77;;
23628;SDS011;11991;57.150;-2.134;2023-05-21T12:32:51;1.90;;;0.70;;
23628;SDS011;11991;57.150;-2.134;2023-05-21T12:35:19;1.30;;;1.02;;
23628;SDS011;11991;57.150;-2.134;2023-05-21T12:37:48;1.48;;;1.38;;
23628;SDS011;11991;57.150;-2.134;2023-05-21T12:40:16;1.52;;;0.90;;
23628;SDS011;11991;57.150;-2.134;2023-05-21T12:42:43;2.60;;;1.05;;
23628;SDS011;11991;57.150;-2.134;2023-05-21T12:45:11;1.20;;;0.73;;
23628;SDS011;11991;57.150;-2.134;2023-05-21T12:47:38;0.73;;;0.73;;
23628;SDS011;11991;57.150;-2.134;2023-05-21T12:50:09;2.03;;;1.20;;
23628;SDS011;11991;57.150;-2.134;2023-05-21T12:52:39;1.52;;;0.88;;
23628;SDS011;11991;57.150;-2.134;2023-05-21T12:55:08;0.60;;;0.60;;
23628;SDS011;11991;57.150;-2.134;2023-05-21T12:57:38;1.85;;;1.13;;
23628;SDS011;11991;57.150;-2.134;2023-05-21T13:00:06;1.45;;;1.02;;
23628;SDS011;11991;57.150;-2.134;2023-05-21T13:02:38;1.13;;;0.90;;
23628;SDS011;11991;57.150;-2.134;2023-05-21T13:05:08;1.20;;;0.77;;
23628;SDS011;11991;57.150;-2.134;2023-05-21T13:07:43;1.10;;;0.88;;
23628;SDS011;11991;57.150;-2.134;2023-05-21T13:10:13;2.85;;;0.80;;
23628;SDS011;11991;57.150;-2.134;2023-05-21T13:12:42;1.27;;;1.00;;
23628;SDS011;11991;57.150;-2.134;2023-05-21T13:15:10;0.82;;;0.70;;
23628;SDS011;11991;57.150;-2.134;2023-05-21T13:17:37;1.15;;;0.73;;
23628;SDS011;11991;57.150;-2.134;2023-05-21T13:22:40;1.98;;;1.05;;
23628;SDS011;11991;57.150;-2.134;2023-05-21T13:25:19;2.25;;;1.17;;
23628;SDS011;11991;57.150;-2.134;2023-05-21T13:27:50;1.98;;;1.15;;
23628;SDS011;11991;57.150;-2.134;2023-05-21T13:30:19;1.45;;;0.82;;
23628;SDS011;11991;57.150;-2.134;2023-05-21T13:32:47;3.38;;;1.67;;
23628;SDS011;11991;57.150;-2.134;2023-05-21T13:35:14;1.92;;;1.15;;
23628;SDS011;11991;57.150;-2.134;2023-05-21T13:37:42;2.38;;;1.30;;
23628;SDS011;11991;57.150;-2.134;2023-05-21T13:40:11;1.83;;;1.02;;
23628;SDS011;11991;57.150;-2.134;2023-05-21T13:42:41;1.58;;;1.00;;
23628;SDS011;11991;57.150;-2.134;2023-05-21T13:45:11;2.92;;;1.48;;
23628;SDS011;11991;57.150;-2.134;2023-05-21T13:47:39;2.38;;;1.75;;
23628;SDS011;11991;57.150;-2.134;2023-05-21T13:50:07;4.03;;;1.70;;
23628;SDS011;11991;57.150;-2.134;2023-05-21T13:52:35;2.40;;;1.10;;
23628;SDS011;11991;57.150;-2.134;2023-05-21T13:55:03;2.88;;;1.33;;
23628;SDS011;11991;57.150;-2.134;2023-05-21T13:57:31;3.63;;;1.58;;
23628;SDS011;11991;57.150;-2.134;2023-05-21T13:59:59;2.05;;;1.08;;
23628;SDS011;11991;57.150;-2.134;2023-05-21T14:02:26;2.53;;;1.63;;
23628;SDS011;11991;57.150;-2.134;2023-05-21T14:04:54;3.75;;;1.80;;
23628;SDS011;11991;57.150;-2.134;2023-05-21T14:07:21;3.97;;;1.70;;
23628;SDS011;11991;57.150;-2.134;2023-05-21T14:09:48;2.53;;;1.27;;
23628;SDS011;11991;57.150;-2.134;2023-05-21T14:12:15;2.08;;;1.30;;
23628;SDS011;11991;57.150;-2.134;2023-05-21T14:14:42;2.67;;;1.90;;
23628;SDS011;11991;57.150;-2.134;2023-05-21T14:17:09;2.83;;;1.17;;
23628;SDS011;11991;57.150;-2.134;2023-05-21T14:19:37;2.63;;;1.10;;
23628;SDS011;11991;57.150;-2.134;2023-05-21T14:22:04;2.90;;;1.77;;
23628;SDS011;11991;57.150;-2.134;2023-05-21T14:24:31;1.95;;;1.00;;
23628;SDS011;11991;57.150;-2.134;2023-05-21T14:26:58;1.75;;;0.80;;
23628;SDS011;11991;57.150;-2.134;2023-05-21T14:29:25;2.22;;;1.13;;
23628;SDS011;11991;57.150;-2.134;2023-05-21T14:31:52;4.10;;;1.42;;
23628;SDS011;11991;57.150;-2.134;2023-05-21T14:34:20;1.95;;;1.17;;
23628;SDS011;11991;57.150;-2.134;2023-05-21T14:36:47;4.85;;;1.73;;
23628;SDS011;11991;57.150;-2.134;2023-05-21T14:39:14;3.85;;;1.60;;
23628;SDS011;11991;57.150;-2.134;2023-05-21T14:41:41;2.22;;;1.58;;
23628;SDS011;11991;57.150;-2.134;2023-05-21T14:44:08;3.75;;;1.58;;
23628;SDS011;11991;57.150;-2.134;2023-05-21T14:46:36;2.58;;;1.40;;
23628;SDS011;11991;57.150;-2.134;2023-05-21T14:49:04;1.67;;;1.02;;
23628;SDS011;11991;57.150;-2.134;2023-05-21T14:51:31;2.55;;;1.48;;
23628;SDS011;11991;57.150;-2.134;2023-05-21T14:53:59;3.55;;;1.60;;
23628;SDS011;11991;57.150;-2.134;2023-05-21T14:56:26;3.67;;;1.40;;
23628;SDS011;11991;57.150;-2.134;2023-05-21T14:58:53;1.33;;;0.90;;
23628;SDS011;11991;57.150;-2.134;2023-05-21T15:01:21;2.50;;;1.50;;
23628;SDS011;11991;57.150;-2.134;2023-05-21T15:03:48;1.77;;;0.90;;
23628;SDS011;11991;57.150;-2.134;2023-05-21T15:06:15;2.75;;;1.27;;
23628;SDS011;11991;57.150;-2.134;2023-05-21T15:08:42;3.30;;;1.45;;
23628;SDS011;11991;57.150;-2.134;2023-05-21T15:11:10;1.67;;;1.23;;
23628;SDS011;11991;57.150;-2.134;2023-05-21T15:13:37;2.85;;;1.73;;
23628;SDS011;11991;57.150;-2.134;2023-05-21T15:16:04;2.58;;;1.38;;